sensor_id;sensor_type;location;lat;lon;timestamp;P1;durP1;ratioP1;P2;durP2;ratioP2
2562;SDS011;1291;51.420;6.970;2022-12-17T00:01:30;74.53;;;29.40;;
2562;SDS011;1291;51.420;6.970;2022-12-17T00:04:14;69.67;;;28.67;;
2562;SDS011;1291;51.420;6.970;2022-12-17T00:06:58;74.87;;;29.73;;
2562;SDS011;1291;51.420;6.970;2022-12-17T00:09:42;83.77;;;28.67;;
2562;SDS011;1291;51.420;6.970;2022-12-17T00:12:26;67.87;;;27.63;;
2562;SDS011;1291;51.420;6.970;2022-12-17T00:15:10;77.87;;;30.03;;
2562;SDS011;1291;51.420;6.970;2022-12-17T00:18:01;78.23;;;28.03;;
2562;SDS011;1291;51.420;6.970;2022-12-17T00:21:07;74.00;;;27.87;;
2562;SDS011;1291;51.420;6.970;2022-12-17T00:23:52;69.63;;;26.63;;
2562;SDS011;1291;51.420;6.970;2022-12-17T00:26:36;79.50;;;27.47;;
2562;SDS011;1291;51.420;6.970;2022-12-17T00:29:20;77.20;;;27.33;;
2562;SDS011;1291;51.420;6.970;2022-12-17T00:32:04;65.90;;;26.40;;
2562;SDS011;1291;51.420;6.970;2022-12-17T00:34:48;81.13;;;27.10;;
2562;SDS011;1291;51.420;6.970;2022-12-17T00:37:32;69.97;;;26.50;;
2562;SDS011;1291;51.420;6.970;2022-12-17T00:40:16;76.10;;;26.80;;
2562;SDS011;1291;51.420;6.970;2022-12-17T00:43:10;71.30;;;24.83;;
2562;SDS011;1291;51.420;6.970;2022-12-17T00:45:56;72.97;;;27.40;;
2562;SDS011;1291;51.420;6.970;2022-12-17T00:48:40;69.17;;;27.07;;
2562;SDS011;1291;51.420;6.970;2022-12-17T00:51:24;78.43;;;29.17;;
2562;SDS011;1291;51.420;6.970;2022-12-17T00:54:08;75.57;;;27.47;;
2562;SDS011;1291;51.420;6.970;2022-12-17T00:56:52;72.97;;;26.77;;
2562;SDS011;1291;51.420;6.970;2022-12-17T00:59:36;73.50;;;27.47;;
2562;SDS011;1291;51.420;6.970;2022-12-17T01:02:20;75.63;;;29.47;;
2562;SDS011;1291;51.420;6.970;2022-12-17T01:05:04;81.63;;;28.07;;
2562;SDS011;1291;51.420;6.970;2022-12-17T01:07:49;76.63;;;28.17;;
2562;SDS011;1291;51.420;6.970;2022-12-17T01:10:33;80.57;;;28.40;;
2562;SDS011;1291;51.420;6.970;2022-12-17T01:13:17;75.43;;;27.73;;
2562;SDS011;1291;51.420;6.970;2022-12-17T01:16:08;85.70;;;28.97;;
2562;SDS011;1291;51.420;6.970;2022-12-17T01:18:54;79.40;;;26.63;;
2562;SDS011;1291;51.420;6.970;2022-12-17T01:21:39;72.47;;;27.50;;
2562;SDS011;1291;51.420;6.970;2022-12-17T01:24:23;66.77;;;26.37;;
2562;SDS011;1291;51.420;6.970;2022-12-17T01:27:08;69.23;;;27.80;;
2562;SDS011;1291;51.420;6.970;2022-12-17T01:29:53;65.03;;;26.03;;
2562;SDS011;1291;51.420;6.970;2022-12-17T01:32:36;64.13;;;26.07;;
2562;SDS011;1291;51.420;6.970;2022-12-17T01:35:21;69.90;;;26.27;;
2562;SDS011;1291;51.420;6.970;2022-12-17T01:38:15;67.00;;;26.40;;
2562;SDS011;1291;51.420;6.970;2022-12-17T01:41:01;77.70;;;26.57;;
2562;SDS011;1291;51.420;6.970;2022-12-17T01:43:46;67.97;;;24.67;;
2562;SDS011;1291;51.420;6.970;2022-12-17T01:46:32;70.17;;;25.30;;
2562;SDS011;1291;51.420;6.970;2022-12-17T01:49:22;55.00;;;23.60;;
2562;SDS011;1291;51.420;6.970;2022-12-17T01:52:10;79.13;;;25.20;;
2562;SDS011;1291;51.420;6.970;2022-12-17T01:54:56;63.17;;;23.77;;
2562;SDS011;1291;51.420;6.970;2022-12-17T01:57:40;59.97;;;23.30;;
2562;SDS011;1291;51.420;6.970;2022-12-17T02:00:24;59.37;;;23.10;;
2562;SDS011;1291;51.420;6.970;2022-12-17T02:03:15;58.23;;;23.03;;
2562;SDS011;1291;51.420;6.970;2022-12-17T02:15:10;63.60;;;22.93;;
2562;SDS011;1291;51.420;6.970;2022-12-17T02:18:05;56.80;;;22.27;;
2562;SDS011;1291;51.420;6.970;2022-12-17T02:20:57;51.83;;;22.47;;
2562;SDS011;1291;51.420;6.970;2022-12-17T02:23:47;60.70;;;23.63;;
2562;SDS011;1291;51.420;6.970;2022-12-17T02:26:55;57.07;;;23.87;;
2562;SDS011;1291;51.420;6.970;2022-12-17T02:29:44;58.10;;;22.50;;
2562;SDS011;1291;51.420;6.970;2022-12-17T02:32:33;68.10;;;22.10;;
2562;SDS011;1291;51.420;6.970;2022-12-17T02:35:24;53.67;;;22.50;;
2562;SDS011;1291;51.420;6.970;2022-12-17T02:38:16;58.23;;;22.53;;
2562;SDS011;1291;51.420;6.970;2022-12-17T02:41:01;56.87;;;24.07;;
2562;SDS011;1291;51.420;6.970;2022-12-17T02:43:49;57.43;;;23.50;;
2562;SDS011;1291;51.420;6.970;2022-12-17T02:46:38;57.27;;;22.67;;
2562;SDS011;1291;51.420;6.970;2022-12-17T02:49:24;59.27;;;23.50;;
2562;SDS011;1291;51.420;6.970;2022-12-17T02:52:09;56.33;;;22.30;;
2562;SDS011;1291;51.420;6.970;2022-12-17T02:55:00;55.30;;;23.33;;
2562;SDS011;1291;51.420;6.970;2022-12-17T02:57:44;48.80;;;21.87;;
2562;SDS011;1291;51.420;6.970;2022-12-17T03:00:28;56.70;;;23.63;;
2562;SDS011;1291;51.420;6.970;2022-12-17T03:03:12;56.47;;;22.67;;
2562;SDS011;1291;51.420;6.970;2022-12-17T03:05:56;59.17;;;24.00;;
2562;SDS011;1291;51.420;6.970;2022-12-17T03:08:40;60.83;;;23.27;;
2562;SDS011;1291;51.420;6.970;2022-12-17T03:11:26;57.70;;;21.77;;
2562;SDS011;1291;51.420;6.970;2022-12-17T03:14:11;62.63;;;22.43;;
2562;SDS011;1291;51.420;6.970;2022-12-17T03:16:55;58.23;;;23.50;;
2562;SDS011;1291;51.420;6.970;2022-12-17T03:19:39;61.53;;;24.17;;
2562;SDS011;1291;51.420;6.970;2022-12-17T03:22:23;54.73;;;24.03;;
2562;SDS011;1291;51.420;6.970;2022-12-17T03:25:07;67.93;;;23.53;;
2562;SDS011;1291;51.420;6.970;2022-12-17T03:27:51;70.03;;;25.07;;
2562;SDS011;1291;51.420;6.970;2022-12-17T03:30:35;68.03;;;24.33;;
2562;SDS011;1291;51.420;6.970;2022-12-17T03:33:19;67.03;;;25.23;;
2562;SDS011;1291;51.420;6.970;2022-12-17T03:36:03;60.83;;;25.37;;
2562;SDS011;1291;51.420;6.970;2022-12-17T03:38:47;65.97;;;25.17;;
2562;SDS011;1291;51.420;6.970;2022-12-17T03:41:31;65.40;;;22.90;;
2562;SDS011;1291;51.420;6.970;2022-12-17T03:44:15;71.57;;;25.57;;
2562;SDS011;1291;51.420;6.970;2022-12-17T03:46:59;62.33;;;24.60;;
2562;SDS011;1291;51.420;6.970;2022-12-17T03:49:43;71.13;;;26.77;;
2562;SDS011;1291;51.420;6.970;2022-12-17T03:52:27;64.73;;;24.33;;
2562;SDS011;1291;51.420;6.970;2022-12-17T03:55:11;68.63;;;25.53;;
2562;SDS011;1291;51.420;6.970;2022-12-17T03:57:55;74.83;;;24.70;;
2562;SDS011;1291;51.420;6.970;2022-12-17T04:00:39;65.83;;;24.33;;
2562;SDS011;1291;51.420;6.970;2022-12-17T04:03:23;61.47;;;23.70;;
2562;SDS011;1291;51.420;6.970;2022-12-17T04:06:07;71.70;;;25.80;;
2562;SDS011;1291;51.420;6.970;2022-12-17T04:08:51;68.60;;;25.67;;
2562;SDS011;1291;51.420;6.970;2022-12-17T04:11:35;66.50;;;25.33;;
2562;SDS011;1291;51.420;6.970;2022-12-17T04:14:19;66.93;;;24.47;;
2562;SDS011;1291;51.420;6.970;2022-12-17T04:17:03;69.83;;;24.27;;
2562;SDS011;1291;51.420;6.970;2022-12-17T04:19:47;67.80;;;25.13;;
2562;SDS011;1291;51.420;6.970;2022-12-17T04:22:31;73.03;;;24.87;;
2562;SDS011;1291;51.420;6.970;2022-12-17T04:25:15;71.93;;;25.10;;
2562;SDS011;1291;51.420;6.970;2022-12-17T04:27:59;62.07;;;24.37;;
2562;SDS011;1291;51.420;6.970;2022-12-17T04:30:42;66.07;;;24.87;;
2562;SDS011;1291;51.420;6.970;2022-12-17T04:33:29;62.37;;;24.97;;
2562;SDS011;1291;51.420;6.970;2022-12-17T04:36:14;63.00;;;23.63;;
2562;SDS011;1291;51.420;6.970;2022-12-17T04:38:58;67.87;;;24.37;;
2562;SDS011;1291;51.420;6.970;2022-12-17T04:41:43;72.63;;;27.07;;
2562;SDS011;1291;51.420;6.970;2022-12-17T04:44:27;70.97;;;25.27;;
2562;SDS011;1291;51.420;6.970;2022-12-17T04:47:11;67.37;;;26.53;;
2562;SDS011;1291;51.420;6.970;2022-12-17T04:49:55;66.07;;;24.70;;
2562;SDS011;1291;51.420;6.970;2022-12-17T04:52:39;75.03;;;25.20;;
2562;SDS011;1291;51.420;6.970;2022-12-17T04:55:22;72.57;;;25.37;;
2562;SDS011;1291;51.420;6.970;2022-12-17T04:58:10;78.03;;;25.67;;
2562;SDS011;1291;51.420;6.970;2022-12-17T05:00:54;70.27;;;25.83;;
2562;SDS011;1291;51.420;6.970;2022-12-17T05:03:40;79.67;;;26.77;;
2562;SDS011;1291;51.420;6.970;2022-12-17T05:06:24;73.37;;;25.10;;
2562;SDS011;1291;51.420;6.970;2022-12-17T05:09:08;77.37;;;25.87;;
2562;SDS011;1291;51.420;6.970;2022-12-17T05:11:52;71.20;;;25.93;;
2562;SDS011;1291;51.420;6.970;2022-12-17T05:14:36;72.53;;;27.07;;
2562;SDS011;1291;51.420;6.970;2022-12-17T05:17:20;70.77;;;25.90;;
2562;SDS011;1291;51.420;6.970;2022-12-17T05:20:04;66.73;;;22.97;;
2562;SDS011;1291;51.420;6.970;2022-12-17T05:22:51;58.27;;;22.70;;
2562;SDS011;1291;51.420;6.970;2022-12-17T05:25:35;63.33;;;23.57;;
2562;SDS011;1291;51.420;6.970;2022-12-17T05:28:19;69.77;;;24.23;;
2562;SDS011;1291;51.420;6.970;2022-12-17T05:31:03;72.40;;;23.00;;
2562;SDS011;1291;51.420;6.970;2022-12-17T05:33:47;70.97;;;23.07;;
2562;SDS011;1291;51.420;6.970;2022-12-17T05:36:31;72.47;;;24.57;;
2562;SDS011;1291;51.420;6.970;2022-12-17T05:39:15;74.20;;;24.63;;
2562;SDS011;1291;51.420;6.970;2022-12-17T05:41:59;61.97;;;23.30;;
2562;SDS011;1291;51.420;6.970;2022-12-17T05:44:43;60.37;;;22.90;;
2562;SDS011;1291;51.420;6.970;2022-12-17T05:47:27;63.87;;;23.43;;
2562;SDS011;1291;51.420;6.970;2022-12-17T05:50:11;69.97;;;24.00;;
2562;SDS011;1291;51.420;6.970;2022-12-17T05:53:05;66.90;;;23.70;;
2562;SDS011;1291;51.420;6.970;2022-12-17T05:55:52;68.70;;;23.37;;
2562;SDS011;1291;51.420;6.970;2022-12-17T05:58:56;61.23;;;22.97;;
2562;SDS011;1291;51.420;6.970;2022-12-17T06:01:40;71.97;;;23.23;;
2562;SDS011;1291;51.420;6.970;2022-12-17T06:04:24;67.63;;;24.73;;
2562;SDS011;1291;51.420;6.970;2022-12-17T06:07:08;65.73;;;23.83;;
2562;SDS011;1291;51.420;6.970;2022-12-17T06:09:52;68.07;;;24.43;;
2562;SDS011;1291;51.420;6.970;2022-12-17T06:12:36;67.03;;;26.23;;
2562;SDS011;1291;51.420;6.970;2022-12-17T06:15:20;69.90;;;25.40;;
2562;SDS011;1291;51.420;6.970;2022-12-17T06:18:04;67.50;;;23.63;;
2562;SDS011;1291;51.420;6.970;2022-12-17T06:20:48;51.23;;;21.87;;
2562;SDS011;1291;51.420;6.970;2022-12-17T06:23:35;57.03;;;21.50;;
2562;SDS011;1291;51.420;6.970;2022-12-17T06:26:19;53.10;;;22.13;;
2562;SDS011;1291;51.420;6.970;2022-12-17T06:29:02;54.20;;;21.33;;
2562;SDS011;1291;51.420;6.970;2022-12-17T06:31:47;55.53;;;21.73;;
2562;SDS011;1291;51.420;6.970;2022-12-17T06:34:31;66.57;;;23.50;;
2562;SDS011;1291;51.420;6.970;2022-12-17T06:37:15;69.90;;;25.43;;
2562;SDS011;1291;51.420;6.970;2022-12-17T06:39:59;58.60;;;22.17;;
2562;SDS011;1291;51.420;6.970;2022-12-17T06:42:53;54.13;;;22.60;;
2562;SDS011;1291;51.420;6.970;2022-12-17T06:45:38;59.47;;;24.27;;
2562;SDS011;1291;51.420;6.970;2022-12-17T06:48:22;54.90;;;22.07;;
2562;SDS011;1291;51.420;6.970;2022-12-17T06:51:06;53.07;;;23.87;;
2562;SDS011;1291;51.420;6.970;2022-12-17T06:53:50;61.30;;;23.03;;
2562;SDS011;1291;51.420;6.970;2022-12-17T06:56:34;53.77;;;21.50;;
2562;SDS011;1291;51.420;6.970;2022-12-17T06:59:18;51.57;;;20.53;;
2562;SDS011;1291;51.420;6.970;2022-12-17T07:02:02;56.50;;;21.37;;
2562;SDS011;1291;51.420;6.970;2022-12-17T07:05:02;54.93;;;20.70;;
2562;SDS011;1291;51.420;6.970;2022-12-17T07:07:47;56.23;;;22.50;;
2562;SDS011;1291;51.420;6.970;2022-12-17T07:10:34;50.77;;;21.17;;
2562;SDS011;1291;51.420;6.970;2022-12-17T07:13:18;48.77;;;21.10;;
2562;SDS011;1291;51.420;6.970;2022-12-17T07:16:02;59.77;;;21.87;;
2562;SDS011;1291;51.420;6.970;2022-12-17T07:18:46;54.17;;;21.60;;
2562;SDS011;1291;51.420;6.970;2022-12-17T07:21:29;41.30;;;19.33;;
2562;SDS011;1291;51.420;6.970;2022-12-17T07:24:13;52.97;;;21.90;;
2562;SDS011;1291;51.420;6.970;2022-12-17T07:26:57;53.03;;;20.87;;
2562;SDS011;1291;51.420;6.970;2022-12-17T07:29:41;50.10;;;20.90;;
2562;SDS011;1291;51.420;6.970;2022-12-17T07:32:25;53.67;;;21.73;;
2562;SDS011;1291;51.420;6.970;2022-12-17T07:35:09;54.37;;;21.47;;
2562;SDS011;1291;51.420;6.970;2022-12-17T07:37:57;51.97;;;20.63;;
2562;SDS011;1291;51.420;6.970;2022-12-17T07:40:42;52.40;;;22.33;;
2562;SDS011;1291;51.420;6.970;2022-12-17T07:43:26;52.50;;;21.00;;
2562;SDS011;1291;51.420;6.970;2022-12-17T07:46:10;50.27;;;20.17;;
2562;SDS011;1291;51.420;6.970;2022-12-17T07:48:54;52.90;;;20.50;;
2562;SDS011;1291;51.420;6.970;2022-12-17T07:51:38;51.40;;;21.50;;
2562;SDS011;1291;51.420;6.970;2022-12-17T07:54:22;54.10;;;19.47;;
2562;SDS011;1291;51.420;6.970;2022-12-17T07:57:06;56.57;;;21.13;;
2562;SDS011;1291;51.420;6.970;2022-12-17T07:59:51;45.50;;;19.97;;
2562;SDS011;1291;51.420;6.970;2022-12-17T08:02:34;43.43;;;18.60;;
2562;SDS011;1291;51.420;6.970;2022-12-17T08:05:18;44.13;;;18.93;;
2562;SDS011;1291;51.420;6.970;2022-12-17T08:08:09;42.40;;;19.67;;
2562;SDS011;1291;51.420;6.970;2022-12-17T08:10:54;41.57;;;18.33;;
2562;SDS011;1291;51.420;6.970;2022-12-17T08:13:38;42.60;;;19.67;;
2562;SDS011;1291;51.420;6.970;2022-12-17T08:16:22;47.83;;;19.77;;
2562;SDS011;1291;51.420;6.970;2022-12-17T08:19:06;47.03;;;19.67;;
2562;SDS011;1291;51.420;6.970;2022-12-17T08:21:50;48.07;;;19.23;;
2562;SDS011;1291;51.420;6.970;2022-12-17T08:24:34;45.20;;;19.10;;
2562;SDS011;1291;51.420;6.970;2022-12-17T08:27:18;43.50;;;18.90;;
2562;SDS011;1291;51.420;6.970;2022-12-17T08:30:03;55.23;;;20.63;;
2562;SDS011;1291;51.420;6.970;2022-12-17T08:32:47;41.83;;;18.97;;
2562;SDS011;1291;51.420;6.970;2022-12-17T08:35:31;48.93;;;20.23;;
2562;SDS011;1291;51.420;6.970;2022-12-17T08:38:15;45.20;;;20.37;;
2562;SDS011;1291;51.420;6.970;2022-12-17T08:41:00;46.47;;;19.60;;
2562;SDS011;1291;51.420;6.970;2022-12-17T08:43:44;50.73;;;20.50;;
2562;SDS011;1291;51.420;6.970;2022-12-17T08:46:28;47.07;;;19.70;;
2562;SDS011;1291;51.420;6.970;2022-12-17T08:49:12;42.57;;;18.70;;
2562;SDS011;1291;51.420;6.970;2022-12-17T08:51:59;43.20;;;18.17;;
2562;SDS011;1291;51.420;6.970;2022-12-17T08:54:43;40.93;;;17.70;;
2562;SDS011;1291;51.420;6.970;2022-12-17T08:57:27;35.80;;;16.23;;
2562;SDS011;1291;51.420;6.970;2022-12-17T09:00:11;37.17;;;15.93;;
2562;SDS011;1291;51.420;6.970;2022-12-17T09:02:59;36.27;;;17.67;;
2562;SDS011;1291;51.420;6.970;2022-12-17T09:05:47;35.93;;;16.33;;
2562;SDS011;1291;51.420;6.970;2022-12-17T09:08:31;35.33;;;16.20;;
2562;SDS011;1291;51.420;6.970;2022-12-17T09:11:15;34.03;;;15.80;;
2562;SDS011;1291;51.420;6.970;2022-12-17T09:13:59;34.23;;;15.80;;
2562;SDS011;1291;51.420;6.970;2022-12-17T09:16:43;34.70;;;16.77;;
2562;SDS011;1291;51.420;6.970;2022-12-17T09:19:28;36.27;;;17.03;;
2562;SDS011;1291;51.420;6.970;2022-12-17T09:22:12;37.50;;;18.73;;
2562;SDS011;1291;51.420;6.970;2022-12-17T09:24:56;40.40;;;17.43;;
2562;SDS011;1291;51.420;6.970;2022-12-17T09:27:40;39.00;;;17.77;;
2562;SDS011;1291;51.420;6.970;2022-12-17T09:30:24;41.03;;;18.40;;
2562;SDS011;1291;51.420;6.970;2022-12-17T09:33:12;37.20;;;17.83;;
2562;SDS011;1291;51.420;6.970;2022-12-17T09:35:57;34.33;;;18.93;;
2562;SDS011;1291;51.420;6.970;2022-12-17T09:38:41;36.67;;;17.47;;
2562;SDS011;1291;51.420;6.970;2022-12-17T09:44:40;33.37;;;15.70;;
2562;SDS011;1291;51.420;6.970;2022-12-17T09:50:42;28.97;;;15.37;;
2562;SDS011;1291;51.420;6.970;2022-12-17T09:53:30;32.60;;;15.53;;
2562;SDS011;1291;51.420;6.970;2022-12-17T09:56:20;31.80;;;16.00;;
2562;SDS011;1291;51.420;6.970;2022-12-17T09:59:10;31.40;;;15.73;;
2562;SDS011;1291;51.420;6.970;2022-12-17T10:02:06;27.03;;;14.73;;
2562;SDS011;1291;51.420;6.970;2022-12-17T10:05:06;28.47;;;15.17;;
2562;SDS011;1291;51.420;6.970;2022-12-17T10:07:55;27.20;;;15.57;;
2562;SDS011;1291;51.420;6.970;2022-12-17T10:10:42;26.07;;;14.53;;
2562;SDS011;1291;51.420;6.970;2022-12-17T10:13:28;27.63;;;14.57;;
2562;SDS011;1291;51.420;6.970;2022-12-17T10:16:32;29.70;;;16.43;;
2562;SDS011;1291;51.420;6.970;2022-12-17T10:19:28;33.50;;;17.27;;
2562;SDS011;1291;51.420;6.970;2022-12-17T10:22:16;29.47;;;16.30;;
2562;SDS011;1291;51.420;6.970;2022-12-17T10:25:23;34.70;;;16.47;;
2562;SDS011;1291;51.420;6.970;2022-12-17T10:30:57;31.20;;;17.20;;
2562;SDS011;1291;51.420;6.970;2022-12-17T10:33:42;33.77;;;16.90;;
2562;SDS011;1291;51.420;6.970;2022-12-17T10:36:28;32.83;;;16.87;;
2562;SDS011;1291;51.420;6.970;2022-12-17T10:39:16;32.13;;;16.90;;
2562;SDS011;1291;51.420;6.970;2022-12-17T10:42:18;33.33;;;16.73;;
2562;SDS011;1291;51.420;6.970;2022-12-17T10:45:16;31.27;;;16.47;;
2562;SDS011;1291;51.420;6.970;2022-12-17T10:51:16;30.53;;;15.67;;
2562;SDS011;1291;51.420;6.970;2022-12-17T10:54:09;27.60;;;15.50;;
2562;SDS011;1291;51.420;6.970;2022-12-17T10:57:06;33.33;;;16.60;;
2562;SDS011;1291;51.420;6.970;2022-12-17T10:59:51;26.27;;;16.10;;
2562;SDS011;1291;51.420;6.970;2022-12-17T11:02:35;32.37;;;16.43;;
2562;SDS011;1291;51.420;6.970;2022-12-17T11:05:26;29.53;;;16.27;;
2562;SDS011;1291;51.420;6.970;2022-12-17T11:08:13;29.63;;;15.83;;
2562;SDS011;1291;51.420;6.970;2022-12-17T11:11:01;29.03;;;16.73;;
2562;SDS011;1291;51.420;6.970;2022-12-17T11:13:50;29.97;;;16.50;;
2562;SDS011;1291;51.420;6.970;2022-12-17T11:16:39;30.80;;;16.47;;
2562;SDS011;1291;51.420;6.970;2022-12-17T11:19:33;27.10;;;15.70;;
2562;SDS011;1291;51.420;6.970;2022-12-17T11:28:34;34.17;;;17.60;;
2562;SDS011;1291;51.420;6.970;2022-12-17T11:37:37;34.90;;;18.50;;
2562;SDS011;1291;51.420;6.970;2022-12-17T11:40:29;33.37;;;18.83;;
2562;SDS011;1291;51.420;6.970;2022-12-17T11:43:29;31.10;;;16.47;;
2562;SDS011;1291;51.420;6.970;2022-12-17T11:52:50;36.10;;;18.80;;
2562;SDS011;1291;51.420;6.970;2022-12-17T11:58:51;32.17;;;18.10;;
2562;SDS011;1291;51.420;6.970;2022-12-17T12:07:54;37.20;;;20.43;;
2562;SDS011;1291;51.420;6.970;2022-12-17T12:10:55;40.70;;;20.37;;
2562;SDS011;1291;51.420;6.970;2022-12-17T12:20:02;37.67;;;19.47;;
2562;SDS011;1291;51.420;6.970;2022-12-17T12:26:12;33.90;;;19.20;;
2562;SDS011;1291;51.420;6.970;2022-12-17T12:32:32;33.03;;;19.27;;
2562;SDS011;1291;51.420;6.970;2022-12-17T12:35:02;40.77;;;20.23;;
2562;SDS011;1291;51.420;6.970;2022-12-17T12:37:47;40.07;;;21.20;;
2562;SDS011;1291;51.420;6.970;2022-12-17T12:40:50;33.83;;;18.83;;
2562;SDS011;1291;51.420;6.970;2022-12-17T12:43:43;42.43;;;22.70;;
2562;SDS011;1291;51.420;6.970;2022-12-17T12:46:42;36.27;;;21.03;;
2562;SDS011;1291;51.420;6.970;2022-12-17T12:49:51;45.37;;;23.67;;
2562;SDS011;1291;51.420;6.970;2022-12-17T12:52:45;39.13;;;21.50;;
2562;SDS011;1291;51.420;6.970;2022-12-17T12:55:36;40.00;;;22.37;;
2562;SDS011;1291;51.420;6.970;2022-12-17T13:01:08;38.93;;;22.67;;
2562;SDS011;1291;51.420;6.970;2022-12-17T13:03:53;46.47;;;24.37;;
2562;SDS011;1291;51.420;6.970;2022-12-17T13:11:55;44.07;;;24.37;;
2562;SDS011;1291;51.420;6.970;2022-12-17T13:14:28;40.40;;;23.63;;
2562;SDS011;1291;51.420;6.970;2022-12-17T13:19:42;41.13;;;23.40;;
2562;SDS011;1291;51.420;6.970;2022-12-17T13:24:49;43.10;;;23.23;;
2562;SDS011;1291;51.420;6.970;2022-12-17T13:27:37;42.73;;;23.20;;
2562;SDS011;1291;51.420;6.970;2022-12-17T13:32:44;45.40;;;25.17;;
2562;SDS011;1291;51.420;6.970;2022-12-17T13:37:45;47.67;;;25.27;;
2562;SDS011;1291;51.420;6.970;2022-12-17T13:42:43;41.67;;;24.03;;
2562;SDS011;1291;51.420;6.970;2022-12-17T13:45:14;39.53;;;23.50;;
2562;SDS011;1291;51.420;6.970;2022-12-17T13:47:41;41.73;;;24.23;;
2562;SDS011;1291;51.420;6.970;2022-12-17T13:50:17;39.90;;;23.37;;
2562;SDS011;1291;51.420;6.970;2022-12-17T13:52:45;39.20;;;22.60;;
2562;SDS011;1291;51.420;6.970;2022-12-17T13:55:16;43.47;;;23.87;;
2562;SDS011;1291;51.420;6.970;2022-12-17T13:57:48;44.03;;;22.93;;
2562;SDS011;1291;51.420;6.970;2022-12-17T14:00:25;40.97;;;24.00;;
2562;SDS011;1291;51.420;6.970;2022-12-17T14:02:53;42.23;;;23.60;;
2562;SDS011;1291;51.420;6.970;2022-12-17T14:07:53;45.00;;;23.27;;
2562;SDS011;1291;51.420;6.970;2022-12-17T14:10:21;43.47;;;22.93;;
2562;SDS011;1291;51.420;6.970;2022-12-17T14:12:46;40.37;;;23.73;;
2562;SDS011;1291;51.420;6.970;2022-12-17T14:15:23;40.63;;;23.53;;
2562;SDS011;1291;51.420;6.970;2022-12-17T14:17:52;36.93;;;21.63;;
2562;SDS011;1291;51.420;6.970;2022-12-17T14:20:22;38.73;;;22.07;;
2562;SDS011;1291;51.420;6.970;2022-12-17T14:22:54;41.67;;;22.40;;
2562;SDS011;1291;51.420;6.970;2022-12-17T14:25:25;40.77;;;23.03;;
2562;SDS011;1291;51.420;6.970;2022-12-17T14:27:55;40.53;;;23.97;;
2562;SDS011;1291;51.420;6.970;2022-12-17T14:30:30;43.90;;;24.03;;
2562;SDS011;1291;51.420;6.970;2022-12-17T14:32:57;39.23;;;23.03;;
2562;SDS011;1291;51.420;6.970;2022-12-17T14:37:53;38.87;;;22.10;;
2562;SDS011;1291;51.420;6.970;2022-12-17T14:40:18;40.37;;;23.23;;
2562;SDS011;1291;51.420;6.970;2022-12-17T14:42:45;43.67;;;24.73;;
2562;SDS011;1291;51.420;6.970;2022-12-17T14:47:39;40.97;;;23.30;;
2562;SDS011;1291;51.420;6.970;2022-12-17T14:50:06;44.37;;;23.53;;
2562;SDS011;1291;51.420;6.970;2022-12-17T14:55:20;42.70;;;23.33;;
2562;SDS011;1291;51.420;6.970;2022-12-17T14:57:52;39.53;;;22.63;;
2562;SDS011;1291;51.420;6.970;2022-12-17T15:00:29;41.73;;;23.47;;
2562;SDS011;1291;51.420;6.970;2022-12-17T15:02:55;38.70;;;21.80;;
2562;SDS011;1291;51.420;6.970;2022-12-17T15:05:20;40.33;;;22.63;;
2562;SDS011;1291;51.420;6.970;2022-12-17T15:07:45;36.80;;;21.87;;
2562;SDS011;1291;51.420;6.970;2022-12-17T15:10:13;41.93;;;22.93;;
2562;SDS011;1291;51.420;6.970;2022-12-17T15:12:42;40.57;;;23.47;;
2562;SDS011;1291;51.420;6.970;2022-12-17T15:15:12;39.67;;;22.23;;
2562;SDS011;1291;51.420;6.970;2022-12-17T15:17:39;46.37;;;23.30;;
2562;SDS011;1291;51.420;6.970;2022-12-17T15:20:04;42.73;;;23.70;;
2562;SDS011;1291;51.420;6.970;2022-12-17T15:22:30;38.80;;;21.93;;
2562;SDS011;1291;51.420;6.970;2022-12-17T15:24:55;38.67;;;24.20;;
2562;SDS011;1291;51.420;6.970;2022-12-17T15:27:20;43.43;;;22.80;;
2562;SDS011;1291;51.420;6.970;2022-12-17T15:29:46;41.63;;;22.83;;
2562;SDS011;1291;51.420;6.970;2022-12-17T15:32:18;35.70;;;21.27;;
2562;SDS011;1291;51.420;6.970;2022-12-17T15:34:45;40.20;;;22.80;;
2562;SDS011;1291;51.420;6.970;2022-12-17T15:37:11;42.17;;;22.03;;
2562;SDS011;1291;51.420;6.970;2022-12-17T15:39:37;39.90;;;22.40;;
2562;SDS011;1291;51.420;6.970;2022-12-17T15:42:02;42.33;;;23.23;;
2562;SDS011;1291;51.420;6.970;2022-12-17T15:44:46;41.20;;;21.13;;
2562;SDS011;1291;51.420;6.970;2022-12-17T15:47:11;42.47;;;22.10;;
2562;SDS011;1291;51.420;6.970;2022-12-17T15:49:37;40.10;;;22.67;;
2562;SDS011;1291;51.420;6.970;2022-12-17T15:52:02;37.03;;;20.40;;
2562;SDS011;1291;51.420;6.970;2022-12-17T15:54:27;42.23;;;21.67;;
2562;SDS011;1291;51.420;6.970;2022-12-17T15:56:53;41.33;;;22.37;;
2562;SDS011;1291;51.420;6.970;2022-12-17T15:59:19;37.37;;;21.50;;
2562;SDS011;1291;51.420;6.970;2022-12-17T16:01:46;39.83;;;21.57;;
2562;SDS011;1291;51.420;6.970;2022-12-17T16:04:11;38.13;;;21.30;;
2562;SDS011;1291;51.420;6.970;2022-12-17T16:06:39;39.13;;;20.63;;
2562;SDS011;1291;51.420;6.970;2022-12-17T16:09:05;42.07;;;21.57;;
2562;SDS011;1291;51.420;6.970;2022-12-17T16:11:30;36.83;;;20.90;;
2562;SDS011;1291;51.420;6.970;2022-12-17T16:13:55;37.43;;;20.33;;
2562;SDS011;1291;51.420;6.970;2022-12-17T16:16:21;41.60;;;21.60;;
2562;SDS011;1291;51.420;6.970;2022-12-17T16:18:47;39.93;;;20.90;;
2562;SDS011;1291;51.420;6.970;2022-12-17T16:21:12;33.07;;;18.70;;
2562;SDS011;1291;51.420;6.970;2022-12-17T16:23:38;33.60;;;20.17;;
2562;SDS011;1291;51.420;6.970;2022-12-17T16:26:05;33.00;;;19.10;;
2562;SDS011;1291;51.420;6.970;2022-12-17T16:28:31;32.80;;;18.20;;
2562;SDS011;1291;51.420;6.970;2022-12-17T16:31:01;35.87;;;19.27;;
2562;SDS011;1291;51.420;6.970;2022-12-17T16:33:35;43.03;;;20.40;;
2562;SDS011;1291;51.420;6.970;2022-12-17T16:36:02;37.63;;;21.60;;
2562;SDS011;1291;51.420;6.970;2022-12-17T16:38:28;34.07;;;19.57;;
2562;SDS011;1291;51.420;6.970;2022-12-17T16:40:58;38.63;;;20.50;;
2562;SDS011;1291;51.420;6.970;2022-12-17T16:43:24;36.80;;;21.17;;
2562;SDS011;1291;51.420;6.970;2022-12-17T16:45:50;35.30;;;19.87;;
2562;SDS011;1291;51.420;6.970;2022-12-17T16:48:17;38.33;;;19.87;;
2562;SDS011;1291;51.420;6.970;2022-12-17T16:50:43;37.20;;;20.57;;
2562;SDS011;1291;51.420;6.970;2022-12-17T16:53:10;33.37;;;19.60;;
2562;SDS011;1291;51.420;6.970;2022-12-17T16:55:46;35.60;;;19.13;;
2562;SDS011;1291;51.420;6.970;2022-12-17T16:58:13;35.87;;;19.87;;
2562;SDS011;1291;51.420;6.970;2022-12-17T17:00:41;37.43;;;21.93;;
2562;SDS011;1291;51.420;6.970;2022-12-17T17:03:07;39.57;;;21.63;;
2562;SDS011;1291;51.420;6.970;2022-12-17T17:05:33;41.80;;;21.53;;
2562;SDS011;1291;51.420;6.970;2022-12-17T17:08:00;40.30;;;22.40;;
2562;SDS011;1291;51.420;6.970;2022-12-17T17:10:27;40.80;;;22.40;;
2562;SDS011;1291;51.420;6.970;2022-12-17T17:12:53;36.53;;;20.77;;
2562;SDS011;1291;51.420;6.970;2022-12-17T17:15:19;37.63;;;19.60;;
2562;SDS011;1291;51.420;6.970;2022-12-17T17:17:44;35.07;;;18.77;;
2562;SDS011;1291;51.420;6.970;2022-12-17T17:20:10;30.73;;;17.73;;
2562;SDS011;1291;51.420;6.970;2022-12-17T17:22:36;29.30;;;16.93;;
2562;SDS011;1291;51.420;6.970;2022-12-17T17:25:02;25.00;;;15.00;;
2562;SDS011;1291;51.420;6.970;2022-12-17T17:27:27;27.20;;;15.33;;
2562;SDS011;1291;51.420;6.970;2022-12-17T17:29:52;25.47;;;16.10;;
2562;SDS011;1291;51.420;6.970;2022-12-17T17:32:18;29.17;;;15.80;;
2562;SDS011;1291;51.420;6.970;2022-12-17T17:34:43;26.43;;;15.73;;
2562;SDS011;1291;51.420;6.970;2022-12-17T17:37:08;31.10;;;16.53;;
2562;SDS011;1291;51.420;6.970;2022-12-17T17:39:34;28.30;;;15.57;;
2562;SDS011;1291;51.420;6.970;2022-12-17T17:42:00;31.93;;;16.53;;
2562;SDS011;1291;51.420;6.970;2022-12-17T17:44:26;26.70;;;14.77;;
2562;SDS011;1291;51.420;6.970;2022-12-17T17:46:51;24.43;;;14.40;;